sensor_id;sensor_type;location;lat;lon;timestamp;temperature;humidity
51011;DHT22;37038;50.182;8.624;2022-12-18T00:00:28;-7.80;99.90
51011;DHT22;37038;50.182;8.624;2022-12-18T00:03:29;-7.90;99.90
51011;DHT22;37038;50.182;8.624;2022-12-18T00:06:27;-7.80;99.90
51011;DHT22;37038;50.182;8.624;2022-12-18T00:09:18;-7.90;99.90
51011;DHT22;37038;50.182;8.624;2022-12-18T00:12:29;-8.00;99.90
51011;DHT22;37038;50.182;8.624;2022-12-18T00:15:36;-7.90;99.90
51011;DHT22;37038;50.182;8.624;2022-12-18T00:18:36;-8.00;99.90
51011;DHT22;37038;50.182;8.624;2022-12-18T00:21:44;-8.10;99.90
51011;DHT22;37038;50.182;8.624;2022-12-18T00:24:38;-8.20;99.90
51011;DHT22;37038;50.182;8.624;2022-12-18T00:27:35;-8.40;99.90
51011;DHT22;37038;50.182;8.624;2022-12-18T00:30:26;-8.40;99.90
51011;DHT22;37038;50.182;8.624;2022-12-18T00:33:18;-8.40;99.90
51011;DHT22;37038;50.182;8.624;2022-12-18T00:36:20;-8.70;99.90
51011;DHT22;37038;50.182;8.624;2022-12-18T00:39:21;-8.80;99.90
51011;DHT22;37038;50.182;8.624;2022-12-18T00:42:21;-8.90;99.90
51011;DHT22;37038;50.182;8.624;2022-12-18T00:45:39;-9.00;99.90
51011;DHT22;37038;50.182;8.624;2022-12-18T00:48:29;-9.00;99.90
51011;DHT22;37038;50.182;8.624;2022-12-18T00:51:24;-9.00;99.90
51011;DHT22;37038;50.182;8.624;2022-12-18T00:54:16;-9.00;99.90
51011;DHT22;37038;50.182;8.624;2022-12-18T00:57:05;-9.10;99.90
51011;DHT22;37038;50.182;8.624;2022-12-18T00:59:55;-9.20;99.90
51011;DHT22;37038;50.182;8.624;2022-12-18T01:02:46;-9.00;99.90
51011;DHT22;37038;50.182;8.624;2022-12-18T01:05:41;-9.10;99.90
51011;DHT22;37038;50.182;8.624;2022-12-18T01:08:30;-9.00;99.90
51011;DHT22;37038;50.182;8.624;2022-12-18T01:11:19;-9.00;99.90
51011;DHT22;37038;50.182;8.624;2022-12-18T01:14:08;-9.00;99.90
51011;DHT22;37038;50.182;8.624;2022-12-18T01:16:56;-9.10;99.90
51011;DHT22;37038;50.182;8.624;2022-12-18T01:19:47;-9.10;99.90
51011;DHT22;37038;50.182;8.624;2022-12-18T01:22:35;-9.10;99.90
51011;DHT22;37038;50.182;8.624;2022-12-18T01:25:26;-9.10;99.90
51011;DHT22;37038;50.182;8.624;2022-12-18T01:28:15;-9.20;99.90
51011;DHT22;37038;50.182;8.624;2022-12-18T01:31:14;-9.10;99.90
51011;DHT22;37038;50.182;8.624;2022-12-18T01:34:09;-9.10;99.90
51011;DHT22;37038;50.182;8.624;2022-12-18T01:36:57;-9.20;99.90
51011;DHT22;37038;50.182;8.624;2022-12-18T01:39:46;-9.10;99.90
51011;DHT22;37038;50.182;8.624;2022-12-18T01:42:35;-9.10;99.90
51011;DHT22;37038;50.182;8.624;2022-12-18T01:45:31;-9.10;99.90
51011;DHT22;37038;50.182;8.624;2022-12-18T01:48:22;-9.10;99.90
51011;DHT22;37038;50.182;8.624;2022-12-18T01:51:13;-9.00;99.90
51011;DHT22;37038;50.182;8.624;2022-12-18T01:54:04;-9.00;99.90
51011;DHT22;37038;50.182;8.624;2022-12-18T01:56:55;-9.00;99.90
51011;DHT22;37038;50.182;8.624;2022-12-18T01:59:47;-8.90;99.90
51011;DHT22;37038;50.182;8.624;2022-12-18T02:02:41;-9.00;99.90
51011;DHT22;37038;50.182;8.624;2022-12-18T02:12:13;-9.00;99.90
51011;DHT22;37038;50.182;8.624;2022-12-18T02:18:56;-9.10;99.90
51011;DHT22;37038;50.182;8.624;2022-12-18T02:22:20;-9.20;99.90
51011;DHT22;37038;50.182;8.624;2022-12-18T02:25:51;-9.20;99.90
51011;DHT22;37038;50.182;8.624;2022-12-18T02:29:03;-9.10;99.90
51011;DHT22;37038;50.182;8.624;2022-12-18T02:31:59;-9.10;99.90
51011;DHT22;37038;50.182;8.624;2022-12-18T02:34:49;-9.20;99.90
51011;DHT22;37038;50.182;8.624;2022-12-18T02:37:39;-9.20;99.90
51011;DHT22;37038;50.182;8.624;2022-12-18T02:40:31;-9.10;99.90
51011;DHT22;37038;50.182;8.624;2022-12-18T02:43:21;-9.10;99.90
51011;DHT22;37038;50.182;8.624;2022-12-18T02:52:45;-9.00;99.90
51011;DHT22;37038;50.182;8.624;2022-12-18T02:56:07;-8.90;99.90
51011;DHT22;37038;50.182;8.624;2022-12-18T02:59:09;-8.80;99.90
51011;DHT22;37038;50.182;8.624;2022-12-18T03:02:17;-8.90;99.90
51011;DHT22;37038;50.182;8.624;2022-12-18T03:05:19;-9.10;99.90
51011;DHT22;37038;50.182;8.624;2022-12-18T03:08:20;-9.10;99.90
51011;DHT22;37038;50.182;8.624;2022-12-18T03:11:12;-9.20;99.90
51011;DHT22;37038;50.182;8.624;2022-12-18T03:14:01;-9.20;99.90
51011;DHT22;37038;50.182;8.624;2022-12-18T03:16:53;-9.10;99.90
51011;DHT22;37038;50.182;8.624;2022-12-18T03:19:46;-9.10;99.90
51011;DHT22;37038;50.182;8.624;2022-12-18T03:22:36;-9.10;99.90
51011;DHT22;37038;50.182;8.624;2022-12-18T03:25:25;-9.00;99.90
51011;DHT22;37038;50.182;8.624;2022-12-18T03:28:22;-8.90;99.90
51011;DHT22;37038;50.182;8.624;2022-12-18T03:31:12;-8.80;99.90
51011;DHT22;37038;50.182;8.624;2022-12-18T03:34:04;-8.70;99.90
51011;DHT22;37038;50.182;8.624;2022-12-18T03:36:57;-8.80;99.90
51011;DHT22;37038;50.182;8.624;2022-12-18T03:39:46;-8.80;99.90
51011;DHT22;37038;50.182;8.624;2022-12-18T03:42:53;-8.90;99.90
51011;DHT22;37038;50.182;8.624;2022-12-18T03:45:56;-8.90;99.90
51011;DHT22;37038;50.182;8.624;2022-12-18T03:49:00;-8.80;99.90
51011;DHT22;37038;50.182;8.624;2022-12-18T03:52:04;-8.70;99.90
51011;DHT22;37038;50.182;8.624;2022-12-18T03:54:55;-8.70;99.90
51011;DHT22;37038;50.182;8.624;2022-12-18T03:57:48;-8.80;99.90
51011;DHT22;37038;50.182;8.624;2022-12-18T04:00:41;-8.90;99.90
51011;DHT22;37038;50.182;8.624;2022-12-18T04:03:31;-9.10;99.90
51011;DHT22;37038;50.182;8.624;2022-12-18T04:06:26;-9.10;99.90
51011;DHT22;37038;50.182;8.624;2022-12-18T04:09:22;-9.40;99.90
51011;DHT22;37038;50.182;8.624;2022-12-18T04:12:16;-9.40;99.90
51011;DHT22;37038;50.182;8.624;2022-12-18T04:15:07;-9.40;99.90
51011;DHT22;37038;50.182;8.624;2022-12-18T04:17:56;-9.50;99.90
51011;DHT22;37038;50.182;8.624;2022-12-18T04:20:46;-9.40;99.90
51011;DHT22;37038;50.182;8.624;2022-12-18T04:23:34;-9.20;99.90
51011;DHT22;37038;50.182;8.624;2022-12-18T04:26:24;-9.20;99.90
51011;DHT22;37038;50.182;8.624;2022-12-18T04:29:12;-9.20;99.90
51011;DHT22;37038;50.182;8.624;2022-12-18T04:32:00;-9.30;99.90
51011;DHT22;37038;50.182;8.624;2022-12-18T04:34:49;-9.10;99.90
51011;DHT22;37038;50.182;8.624;2022-12-18T04:37:37;-9.10;99.90
51011;DHT22;37038;50.182;8.624;2022-12-18T04:40:27;-9.10;99.90
51011;DHT22;37038;50.182;8.624;2022-12-18T04:43:15;-9.20;99.90
51011;DHT22;37038;50.182;8.624;2022-12-18T04:46:05;-9.30;99.90
51011;DHT22;37038;50.182;8.624;2022-12-18T04:48:54;-9.40;99.90
51011;DHT22;37038;50.182;8.624;2022-12-18T04:51:42;-9.50;99.90
51011;DHT22;37038;50.182;8.624;2022-12-18T04:54:31;-9.40;99.90
51011;DHT22;37038;50.182;8.624;2022-12-18T04:57:21;-9.40;99.90
51011;DHT22;37038;50.182;8.624;2022-12-18T05:00:11;-9.50;99.90
51011;DHT22;37038;50.182;8.624;2022-12-18T05:03:01;-9.30;99.90
51011;DHT22;37038;50.182;8.624;2022-12-18T05:05:51;-9.40;99.90
51011;DHT22;37038;50.182;8.624;2022-12-18T05:08:39;-9.50;99.90
51011;DHT22;37038;50.182;8.624;2022-12-18T05:11:27;-9.50;99.90
51011;DHT22;37038;50.182;8.624;2022-12-18T05:14:15;-9.40;99.90
51011;DHT22;37038;50.182;8.624;2022-12-18T05:17:06;-9.40;99.90
51011;DHT22;37038;50.182;8.624;2022-12-18T05:19:54;-9.40;99.90
51011;DHT22;37038;50.182;8.624;2022-12-18T05:22:42;-9.30;99.90
51011;DHT22;37038;50.182;8.624;2022-12-18T05:25:36;-9.20;99.90
51011;DHT22;37038;50.182;8.624;2022-12-18T05:28:25;-9.10;99.90
51011;DHT22;37038;50.182;8.624;2022-12-18T05:31:15;-9.20;99.90
51011;DHT22;37038;50.182;8.624;2022-12-18T05:34:05;-9.40;99.90
51011;DHT22;37038;50.182;8.624;2022-12-18T05:36:53;-9.40;99.90
51011;DHT22;37038;50.182;8.624;2022-12-18T05:39:43;-9.40;99.90
51011;DHT22;37038;50.182;8.624;2022-12-18T05:42:31;-9.50;99.90
51011;DHT22;37038;50.182;8.624;2022-12-18T05:45:19;-9.40;99.90
51011;DHT22;37038;50.182;8.624;2022-12-18T05:48:09;-9.50;99.90
51011;DHT22;37038;50.182;8.624;2022-12-18T05:51:05;-9.40;99.90
51011;DHT22;37038;50.182;8.624;2022-12-18T05:53:54;-9.50;99.90
51011;DHT22;37038;50.182;8.624;2022-12-18T05:56:43;-9.40;99.90
51011;DHT22;37038;50.182;8.624;2022-12-18T05:59:35;-9.50;99.90
51011;DHT22;37038;50.182;8.624;2022-12-18T06:02:23;-9.50;99.90
51011;DHT22;37038;50.182;8.624;2022-12-18T06:05:12;-9.50;99.90
51011;DHT22;37038;50.182;8.624;2022-12-18T06:08:00;-9.60;99.90
51011;DHT22;37038;50.182;8.624;2022-12-18T06:10:52;-9.50;99.90
51011;DHT22;37038;50.182;8.624;2022-12-18T06:13:40;-9.50;99.90
51011;DHT22;37038;50.182;8.624;2022-12-18T06:16:31;-9.50;99.90
51011;DHT22;37038;50.182;8.624;2022-12-18T06:19:20;-9.40;99.90
51011;DHT22;37038;50.182;8.624;2022-12-18T06:22:08;-9.50;99.90
51011;DHT22;37038;50.182;8.624;2022-12-18T06:24:56;-9.60;99.90
51011;DHT22;37038;50.182;8.624;2022-12-18T06:27:47;-9.70;99.90
51011;DHT22;37038;50.182;8.624;2022-12-18T06:30:35;-9.60;99.90
51011;DHT22;37038;50.182;8.624;2022-12-18T06:33:26;-9.70;99.90
51011;DHT22;37038;50.182;8.624;2022-12-18T06:36:15;-9.70;99.90
51011;DHT22;37038;50.182;8.624;2022-12-18T06:39:06;-9.60;99.90
51011;DHT22;37038;50.182;8.624;2022-12-18T06:41:55;-9.60;99.90
51011;DHT22;37038;50.182;8.624;2022-12-18T06:44:44;-9.60;99.90
51011;DHT22;37038;50.182;8.624;2022-12-18T06:47:32;-9.70;99.90
51011;DHT22;37038;50.182;8.624;2022-12-18T06:50:21;-9.70;99.90
51011;DHT22;37038;50.182;8.624;2022-12-18T06:53:09;-9.70;99.90
51011;DHT22;37038;50.182;8.624;2022-12-18T06:56:06;-9.70;99.90
51011;DHT22;37038;50.182;8.624;2022-12-18T06:58:57;-9.60;99.90
51011;DHT22;37038;50.182;8.624;2022-12-18T07:01:45;-9.50;99.90
51011;DHT22;37038;50.182;8.624;2022-12-18T07:04:39;-9.60;99.90
51011;DHT22;37038;50.182;8.624;2022-12-18T07:07:27;-9.60;99.90
51011;DHT22;37038;50.182;8.624;2022-12-18T07:10:16;-9.60;99.90
51011;DHT22;37038;50.182;8.624;2022-12-18T07:13:04;-9.70;99.90
51011;DHT22;37038;50.182;8.624;2022-12-18T07:15:52;-9.50;99.90
51011;DHT22;37038;50.182;8.624;2022-12-18T07:18:40;-9.50;99.90
51011;DHT22;37038;50.182;8.624;2022-12-18T07:21:28;-9.40;99.90
51011;DHT22;37038;50.182;8.624;2022-12-18T07:24:19;-9.40;99.90
51011;DHT22;37038;50.182;8.624;2022-12-18T07:27:14;-9.20;99.90
51011;DHT22;37038;50.182;8.624;2022-12-18T07:30:06;-9.30;99.90
51011;DHT22;37038;50.182;8.624;2022-12-18T07:32:58;-9.40;99.90
51011;DHT22;37038;50.182;8.624;2022-12-18T07:35:46;-9.30;99.90
51011;DHT22;37038;50.182;8.624;2022-12-18T07:38:35;-9.30;99.90
51011;DHT22;37038;50.182;8.624;2022-12-18T07:41:23;-9.30;99.90
51011;DHT22;37038;50.182;8.624;2022-12-18T07:44:12;-9.20;99.90
51011;DHT22;37038;50.182;8.624;2022-12-18T07:47:00;-9.10;99.90
51011;DHT22;37038;50.182;8.624;2022-12-18T07:49:54;-9.10;99.90
51011;DHT22;37038;50.182;8.624;2022-12-18T07:52:54;-8.80;99.90
51011;DHT22;37038;50.182;8.624;2022-12-18T07:55:45;-8.70;99.90
51011;DHT22;37038;50.182;8.624;2022-12-18T07:58:54;-8.50;99.90
51011;DHT22;37038;50.182;8.624;2022-12-18T08:01:42;-8.40;99.90
51011;DHT22;37038;50.182;8.624;2022-12-18T08:04:30;-8.30;99.90
51011;DHT22;37038;50.182;8.624;2022-12-18T08:07:19;-8.20;99.90
51011;DHT22;37038;50.182;8.624;2022-12-18T08:10:19;-8.20;99.90
51011;DHT22;37038;50.182;8.624;2022-12-18T08:13:07;-8.20;99.90
51011;DHT22;37038;50.182;8.624;2022-12-18T08:16:00;-8.10;99.90
51011;DHT22;37038;50.182;8.624;2022-12-18T08:18:51;-8.10;99.90
51011;DHT22;37038;50.182;8.624;2022-12-18T08:21:51;-8.20;99.90
51011;DHT22;37038;50.182;8.624;2022-12-18T08:24:41;-8.10;99.90
51011;DHT22;37038;50.182;8.624;2022-12-18T08:27:29;-8.30;99.90
51011;DHT22;37038;50.182;8.624;2022-12-18T08:30:22;-8.30;99.90
51011;DHT22;37038;50.182;8.624;2022-12-18T08:33:10;-8.50;99.90
51011;DHT22;37038;50.182;8.624;2022-12-18T08:35:59;-8.50;99.90
51011;DHT22;37038;50.182;8.624;2022-12-18T08:38:48;-8.00;99.90
51011;DHT22;37038;50.182;8.624;2022-12-18T08:41:39;-7.90;99.90
51011;DHT22;37038;50.182;8.624;2022-12-18T08:45:02;-8.10;99.90
51011;DHT22;37038;50.182;8.624;2022-12-18T08:47:50;-8.10;99.90
51011;DHT22;37038;50.182;8.624;2022-12-18T08:50:56;-8.20;99.90
51011;DHT22;37038;50.182;8.624;2022-12-18T08:53:46;-7.80;99.90
51011;DHT22;37038;50.182;8.624;2022-12-18T08:56:37;-7.60;99.90
51011;DHT22;37038;50.182;8.624;2022-12-18T08:59:28;-7.10;99.90
51011;DHT22;37038;50.182;8.624;2022-12-18T09:02:42;-6.00;99.90
51011;DHT22;37038;50.182;8.624;2022-12-18T09:05:33;-3.40;99.90
51011;DHT22;37038;50.182;8.624;2022-12-18T09:08:21;-1.80;99.90
51011;DHT22;37038;50.182;8.624;2022-12-18T09:11:19;-0.90;99.90
51011;DHT22;37038;50.182;8.624;2022-12-18T09:14:10;-0.90;99.90
51011;DHT22;37038;50.182;8.624;2022-12-18T09:17:01;-0.50;99.90
51011;DHT22;37038;50.182;8.624;2022-12-18T09:19:49;-0.20;99.30
51011;DHT22;37038;50.182;8.624;2022-12-18T09:22:38;0.40;99.90
51011;DHT22;37038;50.182;8.624;2022-12-18T09:25:26;1.50;95.00
51011;DHT22;37038;50.182;8.624;2022-12-18T09:28:22;2.40;83.30
51011;DHT22;37038;50.182;8.624;2022-12-18T09:31:12;2.20;87.00
51011;DHT22;37038;50.182;8.624;2022-12-18T09:34:01;3.20;79.20
51011;DHT22;37038;50.182;8.624;2022-12-18T09:36:50;4.10;66.90
51011;DHT22;37038;50.182;8.624;2022-12-18T09:39:43;4.80;58.60
51011;DHT22;37038;50.182;8.624;2022-12-18T09:42:32;5.40;54.00
51011;DHT22;37038;50.182;8.624;2022-12-18T09:45:20;5.60;48.90
51011;DHT22;37038;50.182;8.624;2022-12-18T09:48:40;5.60;55.00
51011;DHT22;37038;50.182;8.624;2022-12-18T09:51:51;6.10;51.20
51011;DHT22;37038;50.182;8.624;2022-12-18T09:54:50;6.90;48.90
51011;DHT22;37038;50.182;8.624;2022-12-18T09:57:47;6.40;51.50
51011;DHT22;37038;50.182;8.624;2022-12-18T10:00:41;5.80;52.80
51011;DHT22;37038;50.182;8.624;2022-12-18T10:03:31;5.80;54.10
51011;DHT22;37038;50.182;8.624;2022-12-18T10:06:31;5.60;53.40
51011;DHT22;37038;50.182;8.624;2022-12-18T10:10:01;5.70;56.00
51011;DHT22;37038;50.182;8.624;2022-12-18T10:16:34;5.80;53.60
51011;DHT22;37038;50.182;8.624;2022-12-18T10:19:45;6.10;55.30
51011;DHT22;37038;50.182;8.624;2022-12-18T10:26:05;3.60;57.00
51011;DHT22;37038;50.182;8.624;2022-12-18T10:28:54;3.40;68.40
51011;DHT22;37038;50.182;8.624;2022-12-18T10:31:54;2.00;81.20
51011;DHT22;37038;50.182;8.624;2022-12-18T10:34:48;1.80;73.60
51011;DHT22;37038;50.182;8.624;2022-12-18T10:38:23;0.80;94.20
51011;DHT22;37038;50.182;8.624;2022-12-18T10:44:12;0.70;99.60
51011;DHT22;37038;50.182;8.624;2022-12-18T10:47:12;-0.20;99.90
51011;DHT22;37038;50.182;8.624;2022-12-18T10:50:03;-0.20;99.90
51011;DHT22;37038;50.182;8.624;2022-12-18T10:52:57;-1.20;99.90
51011;DHT22;37038;50.182;8.624;2022-12-18T10:55:50;-1.90;99.90
51011;DHT22;37038;50.182;8.624;2022-12-18T10:58:41;-3.10;99.90
51011;DHT22;37038;50.182;8.624;2022-12-18T11:01:52;-3.30;99.90
51011;DHT22;37038;50.182;8.624;2022-12-18T11:04:50;-3.50;99.90
51011;DHT22;37038;50.182;8.624;2022-12-18T11:07:48;-3.90;99.90
51011;DHT22;37038;50.182;8.624;2022-12-18T11:10:46;-3.00;99.90
51011;DHT22;37038;50.182;8.624;2022-12-18T11:13:35;-2.10;99.90
51011;DHT22;37038;50.182;8.624;2022-12-18T11:16:26;-1.10;99.90
51011;DHT22;37038;50.182;8.624;2022-12-18T11:19:26;-1.30;99.90
51011;DHT22;37038;50.182;8.624;2022-12-18T11:22:33;-2.90;99.90
51011;DHT22;37038;50.182;8.624;2022-12-18T11:25:23;-3.70;99.90
51011;DHT22;37038;50.182;8.624;2022-12-18T11:31:29;-4.40;99.90
51011;DHT22;37038;50.182;8.624;2022-12-18T11:34:30;-4.30;99.90
51011;DHT22;37038;50.182;8.624;2022-12-18T11:37:21;-3.90;99.90
51011;DHT22;37038;50.182;8.624;2022-12-18T11:40:17;-3.90;99.90
51011;DHT22;37038;50.182;8.624;2022-12-18T11:46:53;-3.00;99.90
51011;DHT22;37038;50.182;8.624;2022-12-18T11:49:44;-2.90;99.90
51011;DHT22;37038;50.182;8.624;2022-12-18T11:52:42;-3.80;99.90
51011;DHT22;37038;50.182;8.624;2022-12-18T11:58:52;-4.00;99.90
51011;DHT22;37038;50.182;8.624;2022-12-18T12:11:50;-4.40;99.90
51011;DHT22;37038;50.182;8.624;2022-12-18T12:38:46;-4.70;99.90
51011;DHT22;37038;50.182;8.624;2022-12-18T12:41:48;-4.50;99.90
51011;DHT22;37038;50.182;8.624;2022-12-18T12:44:56;-4.80;99.90
51011;DHT22;37038;50.182;8.624;2022-12-18T12:47:48;-4.90;99.90
51011;DHT22;37038;50.182;8.624;2022-12-18T12:50:38;-4.80;99.90
51011;DHT22;37038;50.182;8.624;2022-12-18T12:53:34;-4.90;99.90
51011;DHT22;37038;50.182;8.624;2022-12-18T12:57:15;-4.90;99.90
51011;DHT22;37038;50.182;8.624;2022-12-18T13:03:35;-4.80;99.90
51011;DHT22;37038;50.182;8.624;2022-12-18T13:09:15;-4.70;99.90
51011;DHT22;37038;50.182;8.624;2022-12-18T13:12:14;-4.80;99.90
51011;DHT22;37038;50.182;8.624;2022-12-18T13:18:40;-4.60;99.90
51011;DHT22;37038;50.182;8.624;2022-12-18T13:21:55;-4.50;99.90
51011;DHT22;37038;50.182;8.624;2022-12-18T13:24:46;-4.50;99.90
51011;DHT22;37038;50.182;8.624;2022-12-18T13:36:33;-4.30;99.90
51011;DHT22;37038;50.182;8.624;2022-12-18T13:39:32;-4.30;99.90
51011;DHT22;37038;50.182;8.624;2022-12-18T13:42:37;-4.20;99.90
51011;DHT22;37038;50.182;8.624;2022-12-18T13:46:23;-4.20;99.90
51011;DHT22;37038;50.182;8.624;2022-12-18T13:49:44;-4.10;99.90
51011;DHT22;37038;50.182;8.624;2022-12-18T13:52:37;-3.60;99.90
51011;DHT22;37038;50.182;8.624;2022-12-18T13:55:29;-3.40;99.90
51011;DHT22;37038;50.182;8.624;2022-12-18T13:58:17;-3.30;99.90
51011;DHT22;37038;50.182;8.624;2022-12-18T14:01:24;-3.70;99.90
51011;DHT22;37038;50.182;8.624;2022-12-18T14:04:27;-3.70;99.90
51011;DHT22;37038;50.182;8.624;2022-12-18T14:07:27;-3.60;99.90
51011;DHT22;37038;50.182;8.624;2022-12-18T14:10:43;-3.70;99.90
51011;DHT22;37038;50.182;8.624;2022-12-18T14:13:39;-3.70;99.90
51011;DHT22;37038;50.182;8.624;2022-12-18T14:16:33;-3.70;99.90
51011;DHT22;37038;50.182;8.624;2022-12-18T14:19:24;-3.70;99.90
51011;DHT22;37038;50.182;8.624;2022-12-18T14:22:20;-3.60;99.90
51011;DHT22;37038;50.182;8.624;2022-12-18T14:30:58;-3.10;99.90
51011;DHT22;37038;50.182;8.624;2022-12-18T14:33:46;-3.00;99.90
51011;DHT22;37038;50.182;8.624;2022-12-18T14:36:41;-3.20;99.90
51011;DHT22;37038;50.182;8.624;2022-12-18T14:39:31;-2.80;99.90
51011;DHT22;37038;50.182;8.624;2022-12-18T14:42:19;-2.90;99.90
51011;DHT22;37038;50.182;8.624;2022-12-18T14:45:37;-2.70;99.90
51011;DHT22;37038;50.182;8.624;2022-12-18T14:48:43;-3.00;99.90
51011;DHT22;37038;50.182;8.624;2022-12-18T14:51:36;-3.20;99.90
51011;DHT22;37038;50.182;8.624;2022-12-18T14:54:28;-3.00;99.90
51011;DHT22;37038;50.182;8.624;2022-12-18T14:57:24;-2.90;99.90
51011;DHT22;37038;50.182;8.624;2022-12-18T15:00:24;-2.70;99.90
51011;DHT22;37038;50.182;8.624;2022-12-18T15:03:22;-2.90;99.90
51011;DHT22;37038;50.182;8.624;2022-12-18T15:06:42;-2.70;99.90
51011;DHT22;37038;50.182;8.624;2022-12-18T15:09:32;-2.90;99.90
51011;DHT22;37038;50.182;8.624;2022-12-18T15:12:35;-2.70;99.90
51011;DHT22;37038;50.182;8.624;2022-12-18T15:18:41;-2.90;99.90
51011;DHT22;37038;50.182;8.624;2022-12-18T15:21:42;-2.80;99.90
51011;DHT22;37038;50.182;8.624;2022-12-18T15:24:34;-2.70;99.90
51011;DHT22;37038;50.182;8.624;2022-12-18T15:27:34;-2.60;99.90
51011;DHT22;37038;50.182;8.624;2022-12-18T15:30:25;-2.70;99.90
51011;DHT22;37038;50.182;8.624;2022-12-18T15:33:26;-2.70;99.90
51011;DHT22;37038;50.182;8.624;2022-12-18T15:36:20;-2.70;99.90
51011;DHT22;37038;50.182;8.624;2022-12-18T15:39:16;-2.80;99.90
51011;DHT22;37038;50.182;8.624;2022-12-18T15:42:08;-2.90;99.90
51011;DHT22;37038;50.182;8.624;2022-12-18T15:45:18;-3.00;99.90
51011;DHT22;37038;50.182;8.624;2022-12-18T15:48:22;-3.00;99.90
51011;DHT22;37038;50.182;8.624;2022-12-18T15:54:17;-3.20;99.90
51011;DHT22;37038;50.182;8.624;2022-12-18T15:57:30;-3.40;99.90
51011;DHT22;37038;50.182;8.624;2022-12-18T16:00:22;-3.40;99.90
51011;DHT22;37038;50.182;8.624;2022-12-18T16:03:15;-3.30;99.90
51011;DHT22;37038;50.182;8.624;2022-12-18T16:06:13;-3.30;99.90
51011;DHT22;37038;50.182;8.624;2022-12-18T16:09:12;-3.50;99.90
51011;DHT22;37038;50.182;8.624;2022-12-18T16:12:02;-3.60;99.90
51011;DHT22;37038;50.182;8.624;2022-12-18T16:15:18;-3.40;99.90
51011;DHT22;37038;50.182;8.624;2022-12-18T16:18:20;-3.40;99.90
51011;DHT22;37038;50.182;8.624;2022-12-18T16:21:21;-3.40;99.90
51011;DHT22;37038;50.182;8.624;2022-12-18T16:24:27;-3.40;99.90
51011;DHT22;37038;50.182;8.624;2022-12-18T16:27:26;-3.50;99.90
51011;DHT22;37038;50.182;8.624;2022-12-18T16:30:49;-3.40;99.90
51011;DHT22;37038;50.182;8.624;2022-12-18T16:34:22;-3.30;99.90
51011;DHT22;37038;50.182;8.624;2022-12-18T16:41:30;-3.00;99.90
51011;DHT22;37038;50.182;8.624;2022-12-18T16:44:37;-3.20;99.90
51011;DHT22;37038;50.182;8.624;2022-12-18T16:47:35;-3.10;99.90
51011;DHT22;37038;50.182;8.624;2022-12-18T16:50:35;-2.90;99.90
51011;DHT22;37038;50.182;8.624;2022-12-18T16:53:40;-2.90;99.90
51011;DHT22;37038;50.182;8.624;2022-12-18T16:56:47;-2.90;99.90
51011;DHT22;37038;50.182;8.624;2022-12-18T17:00:30;-3.10;99.90
51011;DHT22;37038;50.182;8.624;2022-12-18T17:03:37;-3.40;99.90
51011;DHT22;37038;50.182;8.624;2022-12-18T17:06:56;-3.60;99.90
51011;DHT22;37038;50.182;8.624;2022-12-18T17:20:27;-2.80;99.90
51011;DHT22;37038;50.182;8.624;2022-12-18T17:24:12;-2.80;99.90
51011;DHT22;37038;50.182;8.624;2022-12-18T17:27:50;-2.70;99.90
51011;DHT22;37038;50.182;8.624;2022-12-18T17:31:33;-3.00;99.90
51011;DHT22;37038;50.182;8.624;2022-12-18T17:34:43;-2.90;99.90
51011;DHT22;37038;50.182;8.624;2022-12-18T17:39:06;-2.90;99.90
51011;DHT22;37038;50.182;8.624;2022-12-18T18:02:27;-2.20;99.90
51011;DHT22;37038;50.182;8.624;2022-12-18T18:17:10;-2.20;99.90
51011;DHT22;37038;50.182;8.624;2022-12-18T18:21:50;-2.80;99.90
51011;DHT22;37038;50.182;8.624;2022-12-18T18:26:12;-2.90;99.90
51011;DHT22;37038;50.182;8.624;2022-12-18T18:30:11;-2.60;99.90
51011;DHT22;37038;50.182;8.624;2022-12-18T18:33:56;-2.80;99.90
51011;DHT22;37038;50.182;8.624;2022-12-18T18:37:26;-2.60;99.90
51011;DHT22;37038;50.182;8.624;2022-12-18T18:40:36;-2.50;99.90
51011;DHT22;37038;50.182;8.624;2022-12-18T18:44:19;-2.50;99.90
51011;DHT22;37038;50.182;8.624;2022-12-18T18:52:45;-2.40;99.90
51011;DHT22;37038;50.182;8.624;2022-12-18T18:56:45;-2.30;99.90
51011;DHT22;37038;50.182;8.624;2022-12-18T19:00:25;-2.30;99.90
51011;DHT22;37038;50.182;8.624;2022-12-18T19:03:45;-2.30;99.90
51011;DHT22;37038;50.182;8.624;2022-12-18T19:06:41;-2.10;99.90
51011;DHT22;37038;50.182;8.624;2022-12-18T19:09:42;-2.00;99.90
51011;DHT22;37038;50.182;8.624;2022-12-18T19:12:38;-2.00;99.90
51011;DHT22;37038;50.182;8.624;2022-12-18T19:16:41;-1.90;99.90
51011;DHT22;37038;50.182;8.624;2022-12-18T19:20:29;-2.00;99.90
51011;DHT22;37038;50.182;8.624;2022-12-18T19:28:12;-2.70;99.90
51011;DHT22;37038;50.182;8.624;2022-12-18T19:31:55;-2.70;99.90
51011;DHT22;37038;50.182;8.624;2022-12-18T19:38:39;-2.60;99.90
51011;DHT22;37038;50.182;8.624;2022-12-18T19:41:38;-2.80;99.90
51011;DHT22;37038;50.182;8.624;2022-12-18T19:44:35;-2.80;99.90
51011;DHT22;37038;50.182;8.624;2022-12-18T19:47:51;-2.90;99.90
51011;DHT22;37038;50.182;8.624;2022-12-18T19:51:56;-2.90;99.90
51011;DHT22;37038;50.182;8.624;2022-12-18T19:54:50;-2.90;99.90
51011;DHT22;37038;50.182;8.624;2022-12-18T19:58:22;-2.90;99.90
51011;DHT22;37038;50.182;8.624;2022-12-18T20:01:52;-2.80;99.90
51011;DHT22;37038;50.182;8.624;2022-12-18T20:05:10;-2.70;99.90
51011;DHT22;37038;50.182;8.624;2022-12-18T20:09:25;-2.80;99.90
51011;DHT22;37038;50.182;8.624;2022-12-18T20:13:01;-2.70;99.90
51011;DHT22;37038;50.182;8.624;2022-12-18T20:16:15;-2.40;99.90
51011;DHT22;37038;50.182;8.624;2022-12-18T20:19:54;-2.40;99.90
51011;DHT22;37038;50.182;8.624;2022-12-18T20:23:26;-2.40;99.90
51011;DHT22;37038;50.182;8.624;2022-12-18T20:27:04;-2.40;99.90
51011;DHT22;37038;50.182;8.624;2022-12-18T20:30:40;-2.50;99.90
51011;DHT22;37038;50.182;8.624;2022-12-18T20:33:59;-2.20;99.90
51011;DHT22;37038;50.182;8.624;2022-12-18T20:37:52;-2.20;99.90
51011;DHT22;37038;50.182;8.624;2022-12-18T20:46:49;-1.80;99.90
51011;DHT22;37038;50.182;8.624;2022-12-18T20:59:09;-2.20;99.90
51011;DHT22;37038;50.182;8.624;2022-12-18T21:02:52;-1.90;99.90
51011;DHT22;37038;50.182;8.624;2022-12-18T21:06:29;-1.70;99.90
51011;DHT22;37038;50.182;8.624;2022-12-18T21:10:16;-1.40;99.90
51011;DHT22;37038;50.182;8.624;2022-12-18T21:14:03;-1.50;99.90
51011;DHT22;37038;50.182;8.624;2022-12-18T21:18:07;-1.40;99.90
51011;DHT22;37038;50.182;8.624;2022-12-18T21:21:54;-1.40;99.90
51011;DHT22;37038;50.182;8.624;2022-12-18T21:25:53;-1.90;99.90
51011;DHT22;37038;50.182;8.624;2022-12-18T21:29:24;-1.90;99.90
51011;DHT22;37038;50.182;8.624;2022-12-18T21:32:28;-1.90;99.90
51011;DHT22;37038;50.182;8.624;2022-12-18T21:36:18;-1.70;99.90
51011;DHT22;37038;50.182;8.624;2022-12-18T21:39:59;-1.30;99.90
51011;DHT22;37038;50.182;8.624;2022-12-18T21:43:07;-1.50;99.90
51011;DHT22;37038;50.182;8.624;2022-12-18T21:46:58;-1.90;99.90
51011;DHT22;37038;50.182;8.624;2022-12-18T21:50:27;-1.90;99.90
51011;DHT22;37038;50.182;8.624;2022-12-18T21:53:52;-2.00;99.90
51011;DHT22;37038;50.182;8.624;2022-12-18T21:57:12;-2.20;99.90
51011;DHT22;37038;50.182;8.624;2022-12-18T22:00:41;-2.10;99.90
51011;DHT22;37038;50.182;8.624;2022-12-18T22:03:59;-2.00;99.90
51011;DHT22;37038;50.182;8.624;2022-12-18T22:07:25;-1.90;99.90